createdAt,value
2023-03-04T00:02:10.696Z,6.47
2023-03-04T00:04:37.141Z,6.66
2023-03-04T00:07:03.569Z,6.40
2023-03-04T00:09:30.003Z,6.42
2023-03-04T00:11:56.416Z,6.01
2023-03-04T00:14:22.961Z,5.78
2023-03-04T00:16:49.490Z,6.08
2023-03-04T00:19:16.012Z,6.42
2023-03-04T00:21:42.458Z,6.41
2023-03-04T00:24:08.889Z,6.54
2023-03-04T00:26:35.395Z,5.69
2023-03-04T00:29:01.875Z,5.74
2023-03-04T00:31:28.408Z,6.49
2023-03-04T00:33:55.002Z,6.37
2023-03-04T00:36:21.481Z,6.49
2023-03-04T00:38:47.927Z,6.99
2023-03-04T00:41:14.406Z,6.07
2023-03-04T00:43:40.856Z,6.80
2023-03-04T00:46:07.389Z,6.34
2023-03-04T00:48:33.860Z,6.29
2023-03-04T00:51:00.323Z,6.45
2023-03-04T00:53:26.777Z,6.10
2023-03-04T00:55:53.240Z,6.57
2023-03-04T00:58:19.645Z,6.72
2023-03-04T01:00:46.083Z,6.06
2023-03-04T01:03:12.547Z,6.43
2023-03-04T01:05:39.116Z,6.28
2023-03-04T01:08:05.701Z,6.20
2023-03-04T01:10:32.237Z,6.75
2023-03-04T01:12:58.866Z,6.16
2023-03-04T01:15:25.391Z,6.07
2023-03-04T01:17:51.862Z,6.28
2023-03-04T01:20:18.938Z,5.99
2023-03-04T01:22:45.398Z,6.23
2023-03-04T01:25:11.848Z,6.64
2023-03-04T01:27:38.295Z,6.61
2023-03-04T01:30:05.399Z,6.67
2023-03-04T01:32:32.082Z,6.73
2023-03-04T01:34:58.574Z,6.72
2023-03-04T01:37:25.095Z,6.64
2023-03-04T01:39:51.509Z,6.89
2023-03-04T01:42:21.187Z,6.67
2023-03-04T01:44:49.589Z,6.35
2023-03-04T01:47:16.387Z,7.09
2023-03-04T01:49:43.395Z,6.43
2023-03-04T01:52:13.902Z,7.47
2023-03-04T01:54:41.406Z,6.95
2023-03-04T01:57:18.056Z,7.11
2023-03-04T01:59:45.335Z,7.22
2023-03-04T02:02:12.721Z,6.76
2023-03-04T02:04:40.729Z,6.93
2023-03-04T02:07:07.491Z,7.12
2023-03-04T02:09:35.736Z,7.12
2023-03-04T02:12:02.379Z,7.82
2023-03-04T02:14:29.106Z,7.27
2023-03-04T02:16:55.547Z,6.59
2023-03-04T02:19:42.916Z,7.08
2023-03-04T02:22:09.562Z,6.93
2023-03-04T02:24:41.883Z,6.56
2023-03-04T02:27:08.403Z,6.97
2023-03-04T02:29:35.054Z,6.71
2023-03-04T02:32:01.709Z,7.49
2023-03-04T02:34:31.759Z,7.23
2023-03-04T02:36:58.866Z,7.07
2023-03-04T02:39:32.805Z,7.02
2023-03-04T02:42:00.882Z,7.66
2023-03-04T02:44:34.620Z,7.27
2023-03-04T02:47:01.875Z,7.67
2023-03-04T02:49:31.177Z,7.54
2023-03-04T02:52:09.801Z,7.34
2023-03-04T02:54:38.231Z,7.96
2023-03-04T02:57:09.069Z,7.07
2023-03-04T02:59:37.128Z,7.03
2023-03-04T03:02:03.837Z,6.71
2023-03-04T03:04:30.374Z,7.20
2023-03-04T03:06:56.800Z,6.84
2023-03-04T03:09:23.259Z,7.06
2023-03-04T03:11:49.839Z,6.89
2023-03-04T03:14:16.743Z,7.06
2023-03-04T03:16:43.422Z,7.56
2023-03-04T03:19:10.001Z,8.12
2023-03-04T03:21:36.474Z,6.69
2023-03-04T03:24:02.947Z,7.46
2023-03-04T03:26:29.418Z,7.14
2023-03-04T03:28:55.865Z,6.74
2023-03-04T03:31:22.356Z,6.51
2023-03-04T03:33:48.865Z,6.81
2023-03-04T03:36:15.319Z,7.38
2023-03-04T03:38:41.790Z,6.59
2023-03-04T03:41:08.329Z,6.75
2023-03-04T03:43:34.737Z,6.44
2023-03-04T03:46:01.198Z,6.72
2023-03-04T03:48:27.651Z,6.96
2023-03-04T03:50:54.072Z,6.95
2023-03-04T03:53:20.583Z,7.14
2023-03-04T03:55:46.975Z,7.06
2023-03-04T03:58:14.288Z,6.43
2023-03-04T04:00:40.717Z,6.52
2023-03-04T04:03:07.351Z,6.93
2023-03-04T04:05:33.812Z,6.64
2023-03-04T04:08:00.223Z,6.47
2023-03-04T04:10:26.666Z,6.43
2023-03-04T04:12:53.154Z,6.63
2023-03-04T04:15:19.667Z,6.21
2023-03-04T04:17:46.089Z,7.22
2023-03-04T04:20:12.623Z,6.29
2023-03-04T04:22:39.108Z,6.37
2023-03-04T04:25:06.205Z,7.03
2023-03-04T04:27:32.633Z,6.50
2023-03-04T04:29:59.050Z,6.85
2023-03-04T04:32:25.510Z,6.44
2023-03-04T04:34:51.939Z,6.95
2023-03-04T04:37:18.369Z,7.01
2023-03-04T04:39:44.839Z,6.85
2023-03-04T04:42:11.876Z,6.82
2023-03-04T04:44:38.902Z,6.81
2023-03-04T04:47:07.083Z,7.78
2023-03-04T04:49:33.646Z,7.05
2023-03-04T04:52:00.497Z,7.46
2023-03-04T04:54:27.067Z,7.17
2023-03-04T04:56:53.935Z,7.12
2023-03-04T04:59:20.522Z,7.24
2023-03-04T05:01:47.243Z,7.27
2023-03-04T05:04:13.969Z,6.55
2023-03-04T05:06:40.604Z,6.59
2023-03-04T05:09:07.246Z,6.38
2023-03-04T05:11:34.403Z,6.84
2023-03-04T05:14:00.900Z,6.88
2023-03-04T05:16:27.704Z,6.48
2023-03-04T05:18:54.303Z,7.56
2023-03-04T05:21:20.778Z,7.42
2023-03-04T05:23:47.289Z,7.27
2023-03-04T05:26:17.184Z,6.77
2023-03-04T05:28:44.313Z,7.66
2023-03-04T05:31:10.974Z,6.85
2023-03-04T05:33:38.187Z,7.07
2023-03-04T05:36:05.980Z,6.85
2023-03-04T05:38:33.033Z,6.97
2023-03-04T05:41:02.280Z,7.06
2023-03-04T05:43:29.063Z,7.62
2023-03-04T05:45:55.776Z,7.07
2023-03-04T05:48:22.726Z,7.09
2023-03-04T05:50:57.251Z,7.26
2023-03-04T05:53:24.132Z,7.33
2023-03-04T05:55:50.740Z,7.07
2023-03-04T05:58:18.163Z,6.86
2023-03-04T06:00:45.221Z,6.93
2023-03-04T06:03:20.374Z,7.48
2023-03-04T06:05:47.030Z,6.37
2023-03-04T06:08:14.308Z,7.43
2023-03-04T06:10:41.756Z,7.47
2023-03-04T06:13:08.628Z,6.26
2023-03-04T06:15:35.090Z,6.88
2023-03-04T06:18:01.644Z,6.41
2023-03-04T06:20:28.163Z,5.98
2023-03-04T06:22:54.771Z,6.81
2023-03-04T06:25:21.540Z,6.62
2023-03-04T06:27:49.796Z,7.06
2023-03-04T06:30:17.657Z,6.82
2023-03-04T06:32:44.393Z,6.73
2023-03-04T06:35:12.624Z,6.41
2023-03-04T06:37:39.433Z,6.48
2023-03-04T06:40:08.139Z,6.26
2023-03-04T06:42:35.613Z,6.78
2023-03-04T06:45:02.875Z,6.68
2023-03-04T06:47:29.527Z,7.31
2023-03-04T06:49:56.145Z,6.62
2023-03-04T06:52:22.636Z,6.69
2023-03-04T06:54:49.101Z,7.14
2023-03-04T06:57:15.665Z,7.11
2023-03-04T06:59:42.110Z,6.43
2023-03-04T07:02:12.451Z,6.89
2023-03-04T07:04:39.659Z,6.51
2023-03-04T07:07:16.771Z,6.46
2023-03-04T07:09:43.214Z,6.96
2023-03-04T07:12:09.647Z,5.97
2023-03-04T07:14:36.058Z,6.25
2023-03-04T07:17:02.568Z,7.14
2023-03-04T07:19:28.969Z,6.83
2023-03-04T07:21:55.414Z,6.58
2023-03-04T07:24:21.825Z,6.82
2023-03-04T07:26:48.235Z,6.18
2023-03-04T07:29:14.750Z,6.64
2023-03-04T07:31:41.264Z,6.48
2023-03-04T07:34:11.516Z,6.68
2023-03-04T07:36:38.129Z,6.97
2023-03-04T07:39:05.673Z,6.78
2023-03-04T07:41:32.453Z,6.62
2023-03-04T07:43:59.107Z,6.87
2023-03-04T07:46:25.841Z,6.69
2023-03-04T07:48:52.995Z,7.08
2023-03-04T07:51:21.717Z,7.17
2023-03-04T07:53:51.145Z,6.96
2023-03-04T07:56:23.097Z,7.40
2023-03-04T07:58:52.353Z,6.97
2023-03-04T08:01:30.834Z,6.58
2023-03-04T08:03:58.302Z,7.08
2023-03-04T08:06:26.804Z,7.20
2023-03-04T08:09:02.215Z,6.70
2023-03-04T08:11:30.311Z,6.62
2023-03-04T08:13:58.741Z,7.29
2023-03-04T08:16:26.463Z,6.70
2023-03-04T08:18:56.967Z,6.99
2023-03-04T08:21:25.136Z,6.73
2023-03-04T08:23:52.227Z,7.46
2023-03-04T08:26:23.731Z,8.03
2023-03-04T08:28:50.844Z,6.25
2023-03-04T08:31:18.465Z,6.91
2023-03-04T08:33:45.673Z,7.31
2023-03-04T08:36:13.807Z,6.63
2023-03-04T08:38:40.256Z,6.53
2023-03-04T08:41:06.968Z,7.30
2023-03-04T08:43:34.680Z,6.68
2023-03-04T08:46:01.252Z,6.66
2023-03-04T08:48:27.809Z,7.04
2023-03-04T08:50:54.662Z,7.01
2023-03-04T08:53:21.988Z,7.02
2023-03-04T08:55:48.611Z,7.44
2023-03-04T08:58:15.407Z,7.68
2023-03-04T09:00:48.148Z,7.77
2023-03-04T09:03:15.799Z,7.66
2023-03-04T09:05:42.292Z,8.62
2023-03-04T09:08:08.721Z,8.61
2023-03-04T09:10:35.186Z,8.35
2023-03-04T09:13:01.886Z,8.67
2023-03-04T09:15:28.712Z,7.95
2023-03-04T09:17:55.360Z,8.64
2023-03-04T09:20:23.157Z,8.42
2023-03-04T09:22:50.157Z,7.38
2023-03-04T09:25:16.645Z,7.53
2023-03-04T09:27:43.426Z,7.55
2023-03-04T09:30:11.058Z,7.52
2023-03-04T09:32:37.700Z,8.32
2023-03-04T09:35:04.746Z,8.24
2023-03-04T09:37:31.276Z,7.78
2023-03-04T09:39:57.735Z,8.06
2023-03-04T09:42:33.501Z,8.86
2023-03-04T09:45:00.543Z,8.72
2023-03-04T09:47:27.323Z,7.91
2023-03-04T09:50:01.100Z,8.44
2023-03-04T09:52:27.444Z,8.36
2023-03-04T09:55:25.345Z,8.44
2023-03-04T09:58:14.403Z,8.27
2023-03-04T10:00:51.909Z,8.15
2023-03-04T10:03:24.305Z,8.64
2023-03-04T10:05:57.923Z,8.37
2023-03-04T10:08:49.295Z,7.91
2023-03-04T10:11:24.738Z,7.55
2023-03-04T10:14:10.902Z,7.26
2023-03-04T10:16:56.208Z,8.55
2023-03-04T10:19:26.509Z,9.01
2023-03-04T10:21:52.985Z,8.31
2023-03-04T10:24:22.638Z,8.09
2023-03-04T10:26:54.125Z,8.35
2023-03-04T10:29:22.924Z,8.44
2023-03-04T10:31:49.725Z,8.93
2023-03-04T10:34:17.752Z,8.50
2023-03-04T10:36:53.438Z,8.93
2023-03-04T10:39:26.240Z,9.07
2023-03-04T10:41:57.507Z,8.56
2023-03-04T10:44:25.131Z,7.70
2023-03-04T10:46:54.728Z,8.22
2023-03-04T10:49:21.750Z,8.74
2023-03-04T10:52:03.165Z,8.35
2023-03-04T10:54:48.590Z,8.90
2023-03-04T10:57:18.855Z,8.84
2023-03-04T10:59:51.536Z,7.96
2023-03-04T11:02:29.334Z,8.43
2023-03-04T11:05:07.969Z,8.51
2023-03-04T11:07:54.493Z,8.69
2023-03-04T11:10:36.104Z,8.00
2023-03-04T11:13:02.483Z,8.27
2023-03-04T11:15:31.268Z,8.29
2023-03-04T11:18:03.009Z,9.08
2023-03-04T11:20:40.442Z,8.79
2023-03-04T11:23:12.699Z,9.82
2023-03-04T11:25:43.975Z,8.98
2023-03-04T11:28:27.532Z,8.79
2023-03-04T11:31:01.112Z,9.09
2023-03-04T11:33:42.253Z,9.57
2023-03-04T11:36:25.385Z,8.47
2023-03-04T11:38:52.009Z,8.32
2023-03-04T11:41:31.989Z,8.15
2023-03-04T11:44:00.317Z,8.36
2023-03-04T11:46:44.957Z,8.87
2023-03-04T11:49:30.030Z,8.99
2023-03-04T11:52:26.537Z,9.09
2023-03-04T11:54:58.893Z,8.85
2023-03-04T11:57:47.949Z,9.43
2023-03-04T12:00:29.675Z,8.95
2023-03-04T12:03:01.801Z,9.60
2023-03-04T12:05:36.366Z,8.77
2023-03-04T12:08:12.732Z,8.73
2023-03-04T12:10:59.443Z,8.21
2023-03-04T12:13:48.134Z,8.38
2023-03-04T12:16:52.312Z,9.78
2023-03-04T12:19:24.684Z,9.05
2023-03-04T12:22:08.074Z,8.61
2023-03-04T12:24:55.490Z,8.89
2023-03-04T12:27:38.012Z,8.88
2023-03-04T12:30:25.770Z,9.62
2023-03-04T12:33:04.490Z,10.19
2023-03-04T12:35:36.712Z,10.60
2023-03-04T12:38:27.411Z,10.43
2023-03-04T12:41:21.269Z,10.38
2023-03-04T12:44:08.735Z,9.71
2023-03-04T12:47:16.392Z,10.28
2023-03-04T12:50:21.289Z,10.84
2023-03-04T12:53:10.868Z,10.75
2023-03-04T12:55:42.370Z,10.47
2023-03-04T12:58:21.014Z,9.83
2023-03-04T13:01:32.472Z,10.03
2023-03-04T13:04:23.794Z,9.76
2023-03-04T13:07:08.611Z,9.21
2023-03-04T13:09:48.568Z,9.44
2023-03-04T13:12:22.228Z,9.90
2023-03-04T13:15:07.354Z,9.65
2023-03-04T13:17:49.303Z,8.81
2023-03-04T13:20:39.712Z,9.44
2023-03-04T13:23:08.860Z,9.09
2023-03-04T13:26:07.766Z,9.32
2023-03-04T13:28:37.684Z,8.30
2023-03-04T13:31:10.079Z,8.91
2023-03-04T13:33:36.452Z,8.87
2023-03-04T13:36:06.179Z,9.28
2023-03-04T13:38:36.363Z,8.69
2023-03-04T13:41:20.906Z,9.87
2023-03-04T13:43:54.286Z,8.88
2023-03-04T13:46:20.884Z,9.62
2023-03-04T13:48:50.557Z,9.72
2023-03-04T13:51:30.336Z,9.70
2023-03-04T13:54:00.187Z,9.34
2023-03-04T13:56:37.454Z,8.92
2023-03-04T13:59:06.922Z,8.69
2023-03-04T14:01:40.840Z,8.09
2023-03-04T14:04:29.134Z,7.66
2023-03-04T14:06:58.421Z,8.20
2023-03-04T14:09:31.032Z,8.03
2023-03-04T14:12:02.489Z,8.83
2023-03-04T14:14:34.402Z,9.27
2023-03-04T14:17:05.678Z,9.24
2023-03-04T14:19:43.021Z,9.63
2023-03-04T14:22:32.048Z,9.63
2023-03-04T14:25:23.628Z,9.92
2023-03-04T14:27:50.866Z,9.66
2023-03-04T14:30:40.932Z,9.74
2023-03-04T14:33:14.087Z,9.41
2023-03-04T14:35:50.159Z,9.06
2023-03-04T14:38:38.017Z,8.91
2023-03-04T14:41:10.193Z,8.30
2023-03-04T14:43:46.986Z,8.20
2023-03-04T14:46:15.965Z,8.22
2023-03-04T14:48:49.140Z,8.52
2023-03-04T14:51:46.898Z,6.90
2023-03-04T14:54:26.658Z,7.91
2023-03-04T14:56:53.045Z,8.48
2023-03-04T14:59:32.090Z,8.26
2023-03-04T15:02:31.063Z,8.21
2023-03-04T15:05:00.104Z,8.15
2023-03-04T15:07:32.612Z,8.64
2023-03-04T15:10:00.224Z,8.10
2023-03-04T15:12:30.412Z,8.75
2023-03-04T15:15:02.168Z,8.85
2023-03-04T15:17:42.359Z,8.38
2023-03-04T15:20:08.894Z,8.90
2023-03-04T15:22:56.434Z,8.22
2023-03-04T15:25:23.764Z,8.34
2023-03-04T15:27:50.948Z,8.36
2023-03-04T15:30:21.433Z,7.92
2023-03-04T15:32:48.237Z,7.97
2023-03-04T15:35:16.540Z,7.53
2023-03-04T15:37:44.223Z,8.08
2023-03-04T15:40:42.946Z,8.77
2023-03-04T15:43:16.259Z,7.79
2023-03-04T15:45:43.575Z,8.22
2023-03-04T15:48:12.724Z,8.26
2023-03-04T15:50:45.914Z,8.39
2023-03-04T15:53:19.635Z,7.72
2023-03-04T15:55:46.826Z,8.68
2023-03-04T15:58:14.789Z,7.58
2023-03-04T16:00:41.230Z,8.66
2023-03-04T16:03:14.039Z,8.80
2023-03-04T16:05:41.019Z,7.50
2023-03-04T16:08:13.074Z,8.91
2023-03-04T16:10:39.649Z,9.02
2023-03-04T16:13:06.076Z,8.71
2023-03-04T16:15:32.566Z,8.46
2023-03-04T16:17:59.648Z,9.08
2023-03-04T16:20:29.079Z,8.62
2023-03-04T16:22:58.549Z,8.56
2023-03-04T16:25:25.735Z,9.16
2023-03-04T16:27:55.982Z,8.19
2023-03-04T16:30:27.166Z,8.76
2023-03-04T16:32:54.202Z,8.02
2023-03-04T16:35:21.493Z,8.71
2023-03-04T16:37:48.108Z,8.57
2023-03-04T16:40:16.853Z,8.67
2023-03-04T16:42:43.402Z,8.28
2023-03-04T16:45:18.674Z,7.40
2023-03-04T16:47:45.118Z,7.50
2023-03-04T16:50:26.989Z,7.55
2023-03-04T16:52:54.401Z,7.17
2023-03-04T16:55:26.380Z,7.59
2023-03-04T16:57:54.159Z,7.66
2023-03-04T17:00:22.521Z,7.49
2023-03-04T17:03:00.827Z,8.62
2023-03-04T17:05:30.414Z,8.10
2023-03-04T17:07:57.183Z,8.63
2023-03-04T17:10:24.919Z,7.05
2023-03-04T17:12:51.963Z,7.21
2023-03-04T17:15:18.550Z,7.85
2023-03-04T17:17:45.032Z,7.69
2023-03-04T17:20:14.632Z,8.01
2023-03-04T17:22:41.461Z,7.38
2023-03-04T17:25:08.899Z,8.30
2023-03-04T17:27:35.817Z,7.51
2023-03-04T17:30:03.349Z,8.13
2023-03-04T17:32:32.438Z,6.74
2023-03-04T17:34:59.629Z,7.44
2023-03-04T17:37:26.980Z,7.63
2023-03-04T17:39:53.453Z,7.47
2023-03-04T17:42:20.499Z,6.86
2023-03-04T17:44:47.024Z,6.90
2023-03-04T17:47:14.283Z,6.89
2023-03-04T17:49:40.788Z,7.48
2023-03-04T17:52:07.386Z,7.13
2023-03-04T17:54:34.722Z,6.60
2023-03-04T17:57:01.134Z,6.42
2023-03-04T17:59:27.601Z,6.72
2023-03-04T18:01:54.425Z,6.86
2023-03-04T18:04:21.631Z,7.67
2023-03-04T18:06:48.093Z,5.86
2023-03-04T18:09:14.652Z,6.51
2023-03-04T18:11:42.218Z,7.26
2023-03-04T18:14:09.565Z,7.27
2023-03-04T18:16:36.003Z,6.64
2023-03-04T18:19:02.887Z,7.53
2023-03-04T18:21:30.413Z,7.41
2023-03-04T18:23:57.791Z,7.50
2023-03-04T18:26:25.245Z,7.46
2023-03-04T18:28:53.369Z,7.32
2023-03-04T18:31:21.482Z,7.92
2023-03-04T18:33:48.167Z,7.43
2023-03-04T18:36:15.131Z,7.73
2023-03-04T18:38:41.932Z,7.32
2023-03-04T18:41:11.488Z,7.52
2023-03-04T18:43:38.244Z,7.44
2023-03-04T18:46:10.790Z,7.60
2023-03-04T18:48:45.977Z,7.39
2023-03-04T18:51:12.769Z,7.65
2023-03-04T18:53:39.231Z,6.79
2023-03-04T18:56:31.405Z,7.18
2023-03-04T18:58:58.548Z,6.28
2023-03-04T19:01:26.006Z,7.06
2023-03-04T19:03:54.320Z,7.18
2023-03-04T19:06:20.914Z,7.06
2023-03-04T19:08:47.394Z,6.77
2023-03-04T19:11:14.648Z,7.00
2023-03-04T19:13:41.056Z,6.68
2023-03-04T19:16:07.765Z,6.66
2023-03-04T19:18:34.250Z,6.44
2023-03-04T19:21:00.835Z,6.90
2023-03-04T19:23:27.461Z,6.98
2023-03-04T19:25:53.899Z,6.48
2023-03-04T19:28:20.314Z,6.10
2023-03-04T19:30:46.780Z,6.71
2023-03-04T19:33:13.232Z,7.20
2023-03-04T19:36:16.734Z,7.70
2023-03-04T19:38:43.804Z,6.96
2023-03-04T19:41:16.307Z,7.52
2023-03-04T19:43:42.977Z,6.62
2023-03-04T19:46:37.370Z,7.28
2023-03-04T19:49:22.143Z,6.84
2023-03-04T19:51:48.627Z,6.45
2023-03-04T19:54:15.095Z,6.78
2023-03-04T19:56:41.613Z,6.49
2023-03-04T19:59:36.056Z,6.37
2023-03-04T20:02:03.001Z,6.51
2023-03-04T20:04:29.491Z,6.51
2023-03-04T20:06:55.934Z,6.86
2023-03-04T20:09:22.727Z,6.06
2023-03-04T20:11:59.106Z,6.55
2023-03-04T20:14:36.576Z,6.36
2023-03-04T20:17:06.769Z,5.70
2023-03-04T20:19:34.861Z,6.63
2023-03-04T20:22:02.438Z,6.34
2023-03-04T20:24:34.701Z,6.73
2023-03-04T20:27:01.265Z,7.08
2023-03-04T20:29:28.860Z,7.38
2023-03-04T20:31:55.524Z,6.55
2023-03-04T20:34:22.700Z,6.26
2023-03-04T20:36:49.105Z,6.77
2023-03-04T20:39:28.104Z,6.27
2023-03-04T20:41:57.813Z,6.53
2023-03-04T20:44:25.198Z,7.15
2023-03-04T20:46:52.047Z,6.62
2023-03-04T20:49:24.722Z,7.06
2023-03-04T20:52:06.432Z,6.64
2023-03-04T20:54:34.505Z,7.02
2023-03-04T20:57:01.222Z,7.38
2023-03-04T20:59:27.702Z,7.01
2023-03-04T21:01:54.631Z,6.85
2023-03-04T21:04:21.288Z,6.84
2023-03-04T21:06:48.345Z,6.90
2023-03-04T21:09:17.387Z,6.80
2023-03-04T21:11:44.332Z,6.49
2023-03-04T21:14:16.570Z,7.14
2023-03-04T21:16:43.355Z,6.84
2023-03-04T21:19:15.596Z,7.23
2023-03-04T21:21:42.376Z,7.14
2023-03-04T21:24:13.781Z,6.79
2023-03-04T21:26:40.314Z,7.36
2023-03-04T21:29:06.889Z,7.29
2023-03-04T21:31:36.766Z,7.17
2023-03-04T21:34:03.242Z,7.44
2023-03-04T21:36:29.667Z,7.36
2023-03-04T21:38:56.181Z,7.30
2023-03-04T21:41:24.099Z,7.39
2023-03-04T21:43:51.214Z,7.47
2023-03-04T21:46:19.018Z,6.47
2023-03-04T21:48:47.574Z,6.89
2023-03-04T21:51:15.472Z,6.87
2023-03-04T21:53:43.373Z,6.64
2023-03-04T21:56:11.828Z,7.17
2023-03-04T21:58:42.030Z,6.50
2023-03-04T22:01:10.304Z,6.28
2023-03-04T22:03:36.806Z,6.37
2023-03-04T22:06:08.577Z,6.72
2023-03-04T22:08:35.795Z,6.47
2023-03-04T22:11:04.419Z,6.91
2023-03-04T22:13:30.919Z,6.74
2023-03-04T22:15:58.188Z,6.95
2023-03-04T22:18:24.878Z,6.89
2023-03-04T22:20:53.459Z,6.51
2023-03-04T22:23:23.296Z,6.38
2023-03-04T22:25:49.773Z,6.77
2023-03-04T22:28:16.164Z,6.21
2023-03-04T22:30:42.578Z,6.95
2023-03-04T22:33:14.853Z,6.45
2023-03-04T22:35:41.450Z,6.97
2023-03-04T22:38:36.099Z,6.08
2023-03-04T22:41:02.694Z,6.46
2023-03-04T22:43:29.949Z,5.36
2023-03-04T22:45:59.966Z,5.55
2023-03-04T22:48:26.924Z,6.59
2023-03-04T22:50:53.362Z,6.27
2023-03-04T22:53:19.824Z,5.77
2023-03-04T22:55:46.287Z,6.26
2023-03-04T22:58:35.968Z,5.68
2023-03-04T23:01:30.384Z,5.33
2023-03-04T23:03:56.844Z,5.79
2023-03-04T23:06:25.682Z,5.57
2023-03-04T23:08:52.612Z,5.81
2023-03-04T23:11:22.909Z,4.64
2023-03-04T23:13:50.047Z,5.45
2023-03-04T23:16:37.192Z,5.45
2023-03-04T23:19:05.457Z,5.05
2023-03-04T23:21:35.075Z,5.23
2023-03-04T23:24:02.551Z,5.64
2023-03-04T23:26:32.343Z,5.59
2023-03-04T23:29:01.475Z,4.64
2023-03-04T23:31:29.639Z,5.76
2023-03-04T23:34:06.888Z,5.74
2023-03-04T23:36:37.091Z,5.52
2023-03-04T23:39:05.377Z,5.31
2023-03-04T23:41:32.811Z,4.98
2023-03-04T23:43:59.904Z,6.12
2023-03-04T23:46:27.482Z,5.49
2023-03-04T23:48:54.887Z,4.48
2023-03-04T23:51:24.507Z,5.32
2023-03-04T23:53:51.797Z,4.96
2023-03-04T23:56:23.749Z,4.67
2023-03-04T23:58:50.668Z,4.80
